Flight Track Log - Related Links

Times and Time Zones

All times are in EDT time to prevent confusion due to time zone crossing. See the SWA2702 flight status page for this flight to view local times or setup timezone preferences in your user account.

Time Position Orientation Groundspeed Altitude Reporting Facility
EDT Latitude Longitude Course Direction KTS MPH feet Rate Location/Type
Sat 09:24:32 PM 29.6819 -95.2692 North 201 231 1,600  Level Houston Center
Sat 09:25:11 PM 29.7089 -95.3078 309° West 238 274 3,200 2,400 Climbing Houston Center
Sat 09:25:32 PM 29.7214 -95.3339 299° West 257 296 4,000 2,557 Climbing Houston Center
Sat 09:26:12 PM 29.7372 -95.3872 289° West 276 318 5,800 3,387 Climbing Houston Center
Sat 09:26:34 PM 29.7461 -95.4200 287° West 293 337 7,500 3,639 Climbing Houston Center
Sat 09:27:13 PM 29.7586 -95.4742 285° West 285 328 9,500 2,700 Climbing Houston Center
Sat 09:28:14 PM 29.7817 -95.5719 285° West 312 359 12,000 2,951 Climbing Houston Center
Sat 09:29:15 PM 29.8092 -95.6767 287° West 339 390 15,500 2,754 Climbing Houston Center
Sat 09:30:16 PM 29.8339 -95.7836 285° West 347 399 17,600 2,410 Climbing Houston Center
Sat 09:31:17 PM 29.8617 -95.8975 286° West 369 425 20,400 2,410 Climbing Houston Center
Sat 09:32:18 PM 29.8914 -96.0197 286° West 377 434 22,500 2,083 Climbing Houston Center
Sat 09:33:18 PM 29.9194 -96.1392 285° West 387 445 24,600 1,934 Climbing Houston Center
Sat 09:34:19 PM 29.9414 -96.2617 282° West 391 450 26,400 1,770 Climbing Houston Center
Sat 09:35:20 PM 29.9461 -96.3861 273° West 391 450 28,200 1,475 Climbing Houston Center
Sat 09:36:21 PM 29.9569 -96.5128 276° West 399 459 29,400 1,574 Climbing Houston Center
Sat 09:37:22 PM 29.9864 -96.6389 285° West 409 471 31,400 2,016 Climbing Houston Center
Sat 09:38:23 PM 30.0397 -96.7789 294° West 399 459 33,500 1,721 Climbing Houston Center
Sat 09:39:24 PM 30.0839 -96.8931 294° West 393 452 34,900 1,279 Climbing Houston Center
Sat 09:40:25 PM 30.1228 -96.9969 293° West 386 444 36,100 590 Climbing Houston Center
Sat 09:41:26 PM 30.1656 -97.1100 294° West 380 437 36,100  Level Houston Center
Sat 09:42:27 PM 30.2083 -97.2247 293° West 383 441 36,100  Level Houston Center
Sat 09:43:28 PM 30.2528 -97.3417 294° West 386 444 36,100  Level Houston Center
Sat 09:44:29 PM 30.2944 -97.4564 293° West 390 449 36,100  Level Houston Center
Sat 09:45:30 PM 30.3389 -97.5756 293° West 395 455 36,100  Level Houston Center
Sat 09:46:31 PM 30.3822 -97.6922 293° West 392 451 36,100  Level Houston Center
Sat 09:47:32 PM 30.4250 -97.8094 293° West 391 450 36,100  Level Houston Center
Sat 09:48:33 PM 30.4686 -97.9281 293° West 394 453 36,100  Level Houston Center
Sat 09:49:34 PM 30.5114 -98.0461 293° West 392 451 36,100  Level Houston Center
Sat 09:50:34 PM 30.5556 -98.1667 293° West 399 459 36,100  Level Houston Center
Sat 09:51:35 PM 30.6003 -98.2883 293° West 403 464 36,100  Level Houston Center
Sat 09:52:36 PM 30.6453 -98.4103 293° West 405 466 36,100  Level Houston Center
Sat 09:53:37 PM 30.6889 -98.5342 292° West 409 471 36,100  Level Houston Center
Sat 09:54:38 PM 30.7339 -98.6589 293° West 412 474 36,100  Level Houston Center
Sat 09:55:39 PM 30.7794 -98.7819 293° West 411 473 36,100  Level Houston Center
Sat 09:56:40 PM 30.8219 -98.9033 292° West 404 465 36,100  Level Houston Center
Sat 09:57:40 PM 30.8644 -99.0214 293° West 397 457 36,100  Level Houston Center
Sat 09:58:41 PM 30.9058 -99.1400 292° West 393 452 36,100 -49 Level Houston Center
Sat 09:59:42 PM 30.9450 -99.2528 292° West 382 440 36,000  Descending Houston Center
Sat 10:00:43 PM 30.9869 -99.3675 293° West 384 442 36,100  Climbing Houston Center
Sat 10:01:44 PM 31.0333 -99.5036 292° West 378 435 36,000  Descending Houston Center
Sat 10:02:44 PM 31.0747 -99.6206 292° West 389 448 36,100 50 Climbing Houston Center
Sat 10:03:45 PM 31.1153 -99.7372 292° West 389 448 36,100  Level Houston Center
Sat 10:04:46 PM 31.1583 -99.8583 293° West 400 460 36,100  Level Houston Center
Sat 10:05:47 PM 31.1997 -99.9789 292° West 402 463 36,100 -49 Level Houston Center
Sat 10:06:48 PM 31.2417 -100.0967 293° West 396 456 36,000  Descending Houston Center
Sat 10:07:48 PM 31.2836 -100.2208 292° West 410 472 36,100 50 Climbing Houston Center
Sat 10:08:49 PM 31.3250 -100.3414 292° West 402 463 36,100  Level Houston Center
Sat 10:09:20 PM 31.3528 -100.4200 292° West 404 465 36,100  Level Fort Worth Center
Sat 10:10:20 PM 31.4000 -100.5383 295° West 404 465 36,100 -50 Level Fort Worth Center
Sat 10:11:20 PM 31.4431 -100.6444 295° West 397 457 36,000 -1,100 Descending Fort Worth Center
Sat 10:12:20 PM 31.4925 -100.7581 297° West 397 457 33,900 -2,650 Descending Fort Worth Center
Sat 10:13:20 PM 31.5414 -100.8769 296° West 397 457 30,700 -3,000 Descending Fort Worth Center
Sat 10:14:20 PM 31.5922 -100.9936 297° West 397 457 27,900 -2,600 Descending Fort Worth Center
Sat 10:15:20 PM 31.6453 -101.1103 298° West 397 457 25,500 -2,400 Descending Fort Worth Center
Sat 10:16:20 PM 31.6881 -101.2169 295° West 386 444 23,100 -2,300 Descending Fort Worth Center
Sat 10:17:20 PM 31.7328 -101.3214 297° West 373 429 20,900 -2,250 Descending Fort Worth Center
Sat 10:18:20 PM 31.7775 -101.4258 297° West 366 421 18,600 -2,350 Descending Fort Worth Center
Sat 10:19:20 PM 31.8203 -101.5281 296° West 360 414 16,200 -2,300 Descending Fort Worth Center
Sat 10:20:20 PM 31.8628 -101.6278 297° West 348 400 14,000 -2,100 Descending Fort Worth Center
Sat 10:21:20 PM 31.9014 -101.7225 296° West 337 388 12,000 -1,900 Descending Fort Worth Center
Sat 10:22:20 PM 31.9400 -101.8125 297° West 327 376 10,200 -1,500 Descending Fort Worth Center
Sat 10:23:20 PM 31.9767 -101.8950 298° West 306 352 9,000 -1,400 Descending Fort Worth Center
Sat 10:24:20 PM 32.0158 -101.9728 301° West 289 333 7,400 -1,550 Descending Fort Worth Center
Sat 10:25:20 PM 32.0525 -102.0481 300° West 275 316 5,900 -1,250 Descending Fort Worth Center
Sat 10:26:20 PM 32.0600 -102.1269 276° West 260 299 4,900 -700 Descending Fort Worth Center
Sat 10:27:20 PM 32.0492 -102.1950 259° West 230 265 4,500 -500 Descending Fort Worth Center
Sat 10:28:20 PM 32.0131 -102.2128 203° Southwest 151 174 3,900 -650 Descending Fort Worth Center
Sat 10:29:20 PM 31.9797 -102.2086 174° South 123 142 3,200 -450 Descending Fort Worth Center
Sat 10:30:20 PM 31.9458 -102.2214 198° South 118 136 3,000 -200 Descending Fort Worth Center

Login

Don't have an account? Register now (free) for customized features, flight alerts, and more!